< < Back
Terminal Aerodrome Forecast


Current Version              Previous Versions:   1  2  3  4  5  6  7  8  9  

Terminal Aerodrome Forecast

724
FTAK31 PAJN 100543
TAFAHN
TAF
PAHN 100543Z 1006/1106 30012G20KT P6SM OVC100
     FM101200 30012G20KT 4SM -RASN BKN025 OVC050
      TEMPO 1012/1016 30012KT 2SM -SN BR BKN015 OVC025
     FM102000 30010KT 6SM -SHRA SCT015 BKN025
     FM110000 VRB05KT P6SM VCSH SCT025 BKN050
      AMD LTD TO CLD VIS AND WIND=



Latest METAR

936
SAUS70 KWBC 100900
MTRAHN
METAR KAHN 100851Z AUTO 30013G19KT 10SM OVC035 M03/M10 A2999 RMK AO2
SLP163 T10331100 53006


USA.gov is the U.S. government's official web portal to all federal, state and local government web resources and services.